createdAt,value
2022-08-29T00:01:28.849Z,96.18
2022-08-29T00:03:57.467Z,96.94
2022-08-29T00:06:25.579Z,97.00
2022-08-29T00:08:53.098Z,96.77
2022-08-29T00:11:20.908Z,96.69
2022-08-29T00:13:48.823Z,96.96
2022-08-29T00:16:16.407Z,97.61
2022-08-29T00:18:44.025Z,98.07
2022-08-29T00:21:11.550Z,98.47
2022-08-29T00:23:40.459Z,98.43
2022-08-29T00:26:08.314Z,99.32
2022-08-29T00:28:35.859Z,99.54
2022-08-29T00:31:03.506Z,99.70
2022-08-29T00:33:31.615Z,99.95
2022-08-29T00:35:59.298Z,100.00
2022-08-29T00:38:27.770Z,100.00
2022-08-29T00:40:58.306Z,100.00
2022-08-29T00:43:32.929Z,100.00
2022-08-29T00:46:38.721Z,100.00
2022-08-29T00:49:11.796Z,100.00
2022-08-29T00:51:41.050Z,100.00
2022-08-29T00:54:11.303Z,100.00
2022-08-29T00:56:41.551Z,100.00
2022-08-29T00:59:23.209Z,100.00
2022-08-29T01:01:53.819Z,100.00
2022-08-29T01:04:24.327Z,100.00
2022-08-29T01:06:53.290Z,100.00
2022-08-29T01:09:21.349Z,100.00
2022-08-29T01:12:06.993Z,100.00
2022-08-29T01:14:38.451Z,100.00
2022-08-29T01:17:10.174Z,100.00
2022-08-29T01:19:41.863Z,100.00
2022-08-29T01:22:37.114Z,100.00
2022-08-29T01:25:09.994Z,100.00
2022-08-29T01:27:41.166Z,100.00
2022-08-29T01:30:10.157Z,100.00
2022-08-29T01:32:37.966Z,100.00
2022-08-29T01:35:08.559Z,100.00
2022-08-29T01:37:39.542Z,100.00
2022-08-29T01:40:08.657Z,100.00
2022-08-29T01:42:37.386Z,100.00
2022-08-29T01:45:09.876Z,100.00
2022-08-29T01:47:39.966Z,100.00
2022-08-29T01:50:13.376Z,100.00
2022-08-29T01:52:42.961Z,100.00
2022-08-29T01:55:10.586Z,100.00
2022-08-29T01:57:40.875Z,100.00
2022-08-29T02:00:10.609Z,100.00
2022-08-29T02:02:38.360Z,100.00
2022-08-29T02:05:07.201Z,100.00
2022-08-29T02:07:34.690Z,100.00
2022-08-29T02:10:02.166Z,100.00
2022-08-29T02:12:29.714Z,100.00
2022-08-29T02:14:57.214Z,100.00
2022-08-29T02:17:25.463Z,100.00
2022-08-29T02:19:52.934Z,100.00
2022-08-29T02:22:20.790Z,100.00
2022-08-29T02:24:48.349Z,100.00
2022-08-29T02:27:15.858Z,100.00
2022-08-29T02:29:43.375Z,100.00
2022-08-29T02:32:14.533Z,100.00
2022-08-29T02:34:47.775Z,100.00
2022-08-29T02:37:16.943Z,100.00
2022-08-29T02:39:44.453Z,100.00
2022-08-29T02:42:11.919Z,100.00
2022-08-29T02:44:39.441Z,100.00
2022-08-29T02:47:09.038Z,100.00
2022-08-29T02:49:36.650Z,100.00
2022-08-29T02:52:06.592Z,100.00
2022-08-29T02:54:34.746Z,100.00
2022-08-29T02:57:02.251Z,100.00
2022-08-29T02:59:29.771Z,100.00
2022-08-29T03:01:57.553Z,100.00
2022-08-29T03:04:25.119Z,100.00
2022-08-29T03:06:52.626Z,100.00
2022-08-29T03:09:20.169Z,100.00
2022-08-29T03:11:47.723Z,100.00
2022-08-29T03:14:16.024Z,100.00
2022-08-29T03:16:43.654Z,100.00
2022-08-29T03:19:11.394Z,100.00
2022-08-29T03:21:38.873Z,100.00
2022-08-29T03:24:06.479Z,100.00
2022-08-29T03:26:33.985Z,100.00
2022-08-29T03:29:01.457Z,100.00
2022-08-29T03:31:28.974Z,100.00
2022-08-29T03:33:57.060Z,100.00
2022-08-29T03:36:27.023Z,100.00
2022-08-29T03:38:54.699Z,100.00
2022-08-29T03:41:24.855Z,100.00
2022-08-29T03:43:52.910Z,100.00
2022-08-29T03:46:20.459Z,100.00
2022-08-29T03:48:48.455Z,100.00
2022-08-29T03:51:18.247Z,100.00
2022-08-29T03:53:46.001Z,100.00
2022-08-29T03:56:18.897Z,100.00
2022-08-29T03:58:51.951Z,100.00
2022-08-29T04:01:22.594Z,100.00
2022-08-29T04:03:50.330Z,100.00
2022-08-29T04:06:17.976Z,100.00
2022-08-29T04:08:48.252Z,100.00
2022-08-29T04:11:17.872Z,100.00
2022-08-29T04:13:45.679Z,100.00
2022-08-29T04:16:16.025Z,100.00
2022-08-29T04:18:44.338Z,99.96
2022-08-29T04:21:13.049Z,99.75
2022-08-29T04:23:41.181Z,99.85
2022-08-29T04:26:37.010Z,99.68
2022-08-29T04:29:05.821Z,99.43
2022-08-29T04:31:33.424Z,99.10
2022-08-29T04:34:00.981Z,98.91
2022-08-29T04:36:29.107Z,98.71
2022-08-29T04:38:57.392Z,98.71
2022-08-29T04:41:24.912Z,98.52
2022-08-29T04:43:52.450Z,98.47
2022-08-29T04:46:24.400Z,98.89
2022-08-29T04:48:52.736Z,98.87
2022-08-29T04:51:21.169Z,100.00
2022-08-29T04:53:48.951Z,100.00
2022-08-29T04:56:16.497Z,99.69
2022-08-29T04:58:45.019Z,99.53
2022-08-29T05:01:18.617Z,99.18
2022-08-29T05:03:46.239Z,98.95
2022-08-29T05:06:16.377Z,99.00
2022-08-29T05:08:46.238Z,99.20
2022-08-29T05:11:22.518Z,99.32
2022-08-29T05:13:52.537Z,99.34
2022-08-29T05:16:20.417Z,99.56
2022-08-29T05:18:48.490Z,99.65
2022-08-29T05:21:27.122Z,99.64
2022-08-29T05:23:57.131Z,99.65
2022-08-29T05:26:25.888Z,99.15
2022-08-29T05:28:53.531Z,98.93
2022-08-29T05:31:22.303Z,98.01
2022-08-29T05:33:50.184Z,97.46
2022-08-29T05:36:17.946Z,97.74
2022-08-29T05:38:46.033Z,96.90
2022-08-29T05:41:13.545Z,96.23
2022-08-29T05:43:41.039Z,95.51
2022-08-29T05:46:11.316Z,93.86
2022-08-29T05:48:42.662Z,93.11
2022-08-29T05:51:20.425Z,92.26
2022-08-29T05:53:48.562Z,90.15
2022-08-29T05:56:25.600Z,88.73
2022-08-29T05:58:53.999Z,87.95
2022-08-29T06:01:32.740Z,87.21
2022-08-29T06:04:01.650Z,85.69
2022-08-29T06:06:31.230Z,84.50
2022-08-29T06:09:00.169Z,84.54
2022-08-29T06:11:31.765Z,82.97
2022-08-29T06:14:00.462Z,82.48
2022-08-29T06:16:30.007Z,81.14
2022-08-29T06:18:57.907Z,80.51
2022-08-29T06:21:26.031Z,79.77
2022-08-29T06:23:53.550Z,78.85
2022-08-29T06:26:21.112Z,77.80
2022-08-29T06:28:49.470Z,76.87
2022-08-29T06:31:27.307Z,75.24
2022-08-29T06:33:57.594Z,74.41
2022-08-29T06:36:26.073Z,74.26
2022-08-29T06:38:56.124Z,73.58
2022-08-29T06:41:24.800Z,72.05
2022-08-29T06:43:53.118Z,70.81
2022-08-29T06:46:29.931Z,68.91
2022-08-29T06:48:59.230Z,66.55
2022-08-29T06:51:32.678Z,66.06
2022-08-29T06:54:07.051Z,62.63
2022-08-29T06:56:37.114Z,61.34
2022-08-29T06:59:05.668Z,60.48
2022-08-29T07:01:34.312Z,61.29
2022-08-29T07:04:03.185Z,59.08
2022-08-29T07:06:31.457Z,59.11
2022-08-29T07:09:00.079Z,58.68
2022-08-29T07:11:31.018Z,58.80
2022-08-29T07:14:01.662Z,59.60
2022-08-29T07:16:30.780Z,60.25
2022-08-29T07:18:58.393Z,59.99
2022-08-29T07:21:28.547Z,61.91
2022-08-29T07:23:58.310Z,62.80
2022-08-29T07:26:30.402Z,61.06
2022-08-29T07:29:00.090Z,61.52
2022-08-29T07:31:31.379Z,59.87
2022-08-29T07:34:02.024Z,58.39
2022-08-29T07:36:31.831Z,56.39
2022-08-29T07:38:59.360Z,56.25
2022-08-29T07:41:28.505Z,57.22
2022-08-29T07:43:56.039Z,58.46
2022-08-29T07:46:25.559Z,57.13
2022-08-29T07:48:53.641Z,57.68
2022-08-29T07:51:23.782Z,58.46
2022-08-29T07:53:52.666Z,59.19
2022-08-29T07:56:24.822Z,58.08
2022-08-29T07:58:52.540Z,57.77
2022-08-29T08:01:21.472Z,57.82
2022-08-29T08:03:50.900Z,58.91
2022-08-29T08:06:20.974Z,58.36
2022-08-29T08:08:49.103Z,57.61
2022-08-29T08:11:17.783Z,58.37
2022-08-29T08:13:45.411Z,59.42
2022-08-29T08:16:17.162Z,59.67
2022-08-29T08:18:45.612Z,60.87
2022-08-29T08:21:13.858Z,58.13
2022-08-29T08:23:42.575Z,58.27
2022-08-29T08:26:12.226Z,56.64
2022-08-29T08:28:40.580Z,57.57
2022-08-29T08:31:10.211Z,56.18
2022-08-29T08:33:39.333Z,57.15
2022-08-29T08:36:22.668Z,57.26
2022-08-29T08:38:51.666Z,57.25
2022-08-29T08:41:29.700Z,57.85
2022-08-29T08:44:07.169Z,57.07
2022-08-29T08:46:43.119Z,56.53
2022-08-29T08:49:19.730Z,55.41
2022-08-29T08:51:53.763Z,55.58
2022-08-29T08:54:25.972Z,54.79
2022-08-29T08:57:08.684Z,54.38
2022-08-29T08:59:43.411Z,54.25
2022-08-29T09:02:35.296Z,54.10
2022-08-29T09:05:20.690Z,53.47
2022-08-29T09:07:50.912Z,54.16
2022-08-29T09:10:28.957Z,54.70
2022-08-29T09:13:12.117Z,55.57
2022-08-29T09:15:44.451Z,55.40
2022-08-29T09:18:27.166Z,56.01
2022-08-29T09:20:54.709Z,56.14
2022-08-29T09:23:22.127Z,55.62
2022-08-29T09:25:49.818Z,55.04
2022-08-29T09:28:17.404Z,54.45
2022-08-29T09:31:06.179Z,53.28
2022-08-29T09:33:45.856Z,53.27
2022-08-29T09:36:15.790Z,54.50
2022-08-29T09:38:43.425Z,53.78
2022-08-29T09:41:11.554Z,53.91
2022-08-29T09:43:45.265Z,52.68
2022-08-29T09:46:12.743Z,51.26
2022-08-29T09:48:43.587Z,50.58
2022-08-29T09:51:11.228Z,48.39
2022-08-29T09:53:38.914Z,48.31
2022-08-29T09:56:09.266Z,47.98
2022-08-29T09:58:41.700Z,47.31
2022-08-29T10:01:24.846Z,47.01
2022-08-29T10:04:03.152Z,46.85
2022-08-29T10:06:34.163Z,46.62
2022-08-29T10:09:09.402Z,47.75
2022-08-29T10:11:54.297Z,47.33
2022-08-29T10:14:41.713Z,47.48
2022-08-29T10:17:56.558Z,47.89
2022-08-29T10:20:36.266Z,46.86
2022-08-29T10:23:37.714Z,46.70
2022-08-29T10:26:35.483Z,46.69
2022-08-29T10:29:20.410Z,46.45
2022-08-29T10:32:32.402Z,46.43
2022-08-29T10:35:24.030Z,45.50
2022-08-29T10:38:06.630Z,47.29
2022-08-29T10:40:48.794Z,45.85
2022-08-29T10:43:38.208Z,47.29
2022-08-29T10:46:27.478Z,46.57
2022-08-29T10:49:00.839Z,45.51
2022-08-29T10:51:42.810Z,43.04
2022-08-29T10:54:33.370Z,43.85
2022-08-29T10:57:02.203Z,43.57
2022-08-29T10:59:35.383Z,44.68
2022-08-29T11:02:13.831Z,45.04
2022-08-29T11:04:46.841Z,44.56
2022-08-29T11:07:26.981Z,45.69
2022-08-29T11:09:59.899Z,46.00
2022-08-29T11:12:51.537Z,47.39
2022-08-29T11:15:48.365Z,48.29
2022-08-29T11:18:31.341Z,50.12
2022-08-29T11:21:17.241Z,51.39
2022-08-29T11:23:49.262Z,51.84
2022-08-29T11:26:28.978Z,51.37
2022-08-29T11:29:14.791Z,50.51
2022-08-29T11:32:28.794Z,50.22
2022-08-29T11:35:14.802Z,50.23
2022-08-29T11:37:51.121Z,50.93
2022-08-29T11:43:47.978Z,50.06
2022-08-29T11:46:17.028Z,49.76
2022-08-29T11:48:47.668Z,48.34
2022-08-29T11:51:51.632Z,45.92
2022-08-29T11:54:25.312Z,44.27
2022-08-29T11:57:13.114Z,43.19
2022-08-29T11:59:49.674Z,42.88
2022-08-29T12:02:29.270Z,44.36
2022-08-29T12:05:05.505Z,44.43
2022-08-29T12:07:43.401Z,44.82
2022-08-29T12:10:23.681Z,44.44
2022-08-29T12:12:56.571Z,43.91
2022-08-29T12:15:33.329Z,44.32
2022-08-29T12:18:03.878Z,42.67
2022-08-29T12:20:31.700Z,44.42
2022-08-29T12:23:03.578Z,43.27
2022-08-29T12:25:41.309Z,43.11
2022-08-29T12:28:18.024Z,44.50
2022-08-29T12:31:05.045Z,43.85
2022-08-29T12:33:36.316Z,44.27
2022-08-29T12:36:28.756Z,44.06
2022-08-29T12:39:19.462Z,44.57
2022-08-29T12:42:21.394Z,43.13
2022-08-29T12:45:02.202Z,44.44
2022-08-29T12:47:45.778Z,43.77
2022-08-29T12:50:22.070Z,45.07
2022-08-29T12:53:20.399Z,43.37
2022-08-29T12:55:51.647Z,44.02
2022-08-29T12:58:47.105Z,44.65
2022-08-29T13:01:26.537Z,45.08
2022-08-29T13:04:03.231Z,45.53
2022-08-29T13:06:32.487Z,44.66
2022-08-29T13:09:00.805Z,43.22
2022-08-29T13:11:32.085Z,42.48
2022-08-29T13:14:12.445Z,42.31
2022-08-29T13:16:40.915Z,40.88
2022-08-29T13:19:22.578Z,40.28
2022-08-29T13:21:50.166Z,39.63
2022-08-29T13:24:20.695Z,39.70
2022-08-29T13:27:06.246Z,38.24
2022-08-29T13:29:42.391Z,37.80
2022-08-29T13:32:09.921Z,36.22
2022-08-29T13:34:37.515Z,35.94
2022-08-29T13:37:10.616Z,36.01
2022-08-29T13:39:48.592Z,36.21
2022-08-29T13:42:20.586Z,36.65
2022-08-29T13:44:48.082Z,39.65
2022-08-29T13:47:18.461Z,42.51
2022-08-29T13:49:46.920Z,42.77
2022-08-29T13:52:15.507Z,43.16
2022-08-29T13:54:43.591Z,44.48
2022-08-29T13:57:21.972Z,45.07
2022-08-29T13:59:50.260Z,44.94
2022-08-29T14:02:19.182Z,45.15
2022-08-29T14:04:48.657Z,46.28
2022-08-29T14:07:28.114Z,46.31
2022-08-29T14:09:55.751Z,46.50
2022-08-29T14:12:33.695Z,45.38
2022-08-29T14:15:08.166Z,44.63
2022-08-29T14:17:37.467Z,43.89
2022-08-29T14:20:06.808Z,44.23
2022-08-29T14:22:34.299Z,46.47
2022-08-29T14:25:02.919Z,46.92
2022-08-29T14:27:30.858Z,47.73
2022-08-29T14:29:58.610Z,48.91
2022-08-29T14:32:26.996Z,50.06
2022-08-29T14:34:54.775Z,51.31
2022-08-29T14:37:22.466Z,50.92
2022-08-29T14:39:50.530Z,49.01
2022-08-29T14:42:19.434Z,48.62
2022-08-29T14:44:47.036Z,48.50
2022-08-29T14:47:14.997Z,48.09
2022-08-29T14:49:42.742Z,48.45
2022-08-29T14:52:11.879Z,47.97
2022-08-29T14:54:39.401Z,46.85
2022-08-29T14:57:07.215Z,46.94
2022-08-29T14:59:36.115Z,45.56
2022-08-29T15:02:04.967Z,45.84
2022-08-29T15:04:36.796Z,45.04
2022-08-29T15:07:06.306Z,47.55
2022-08-29T15:09:34.440Z,47.86
2022-08-29T15:12:01.987Z,48.65
2022-08-29T15:14:29.645Z,49.18
2022-08-29T15:16:57.223Z,50.09
2022-08-29T15:22:13.677Z,50.54
2022-08-29T15:24:41.723Z,50.48
2022-08-29T15:27:09.939Z,51.60
2022-08-29T15:29:40.500Z,52.21
2022-08-29T15:32:08.323Z,52.56
2022-08-29T15:34:36.654Z,52.31
2022-08-29T15:37:05.995Z,51.18
2022-08-29T15:39:33.926Z,52.38
2022-08-29T15:42:03.637Z,53.30
2022-08-29T15:44:31.710Z,52.61
2022-08-29T15:46:59.391Z,52.51
2022-08-29T15:49:29.065Z,53.69
2022-08-29T15:51:57.430Z,54.00
2022-08-29T15:54:26.652Z,53.69
2022-08-29T15:56:54.629Z,54.33
2022-08-29T15:59:41.172Z,53.58
2022-08-29T16:02:11.334Z,52.93
2022-08-29T16:04:42.821Z,52.37
2022-08-29T16:07:12.624Z,52.52
2022-08-29T16:09:40.989Z,53.42
2022-08-29T16:12:08.845Z,54.90
2022-08-29T16:14:58.446Z,55.47
2022-08-29T16:17:24.066Z,55.05
2022-08-29T16:19:51.690Z,55.39
2022-08-29T16:22:19.630Z,55.83
2022-08-29T16:24:47.145Z,54.29
2022-08-29T16:27:15.602Z,53.73
2022-08-29T16:29:44.213Z,53.94
2022-08-29T16:32:11.740Z,54.29
2022-08-29T16:34:39.280Z,55.32
2022-08-29T16:37:08.014Z,55.43
2022-08-29T16:39:35.527Z,55.68
2022-08-29T16:42:03.085Z,56.13
2022-08-29T16:44:31.770Z,55.38
2022-08-29T16:46:59.317Z,55.97
2022-08-29T16:49:26.791Z,56.73
2022-08-29T16:51:54.337Z,56.22
2022-08-29T16:54:22.078Z,56.35
2022-08-29T16:56:49.596Z,56.49
2022-08-29T16:59:17.251Z,57.15
2022-08-29T17:01:50.399Z,57.62
2022-08-29T17:04:21.441Z,58.20
2022-08-29T17:06:49.198Z,58.49
2022-08-29T17:09:17.889Z,59.44
2022-08-29T17:11:44.930Z,59.42
2022-08-29T17:14:11.582Z,59.68
2022-08-29T17:16:40.233Z,59.88
2022-08-29T17:19:09.071Z,60.02
2022-08-29T17:21:36.878Z,60.68
2022-08-29T17:24:07.239Z,61.07
2022-08-29T17:26:40.717Z,60.94
2022-08-29T17:29:09.562Z,62.55
2022-08-29T17:31:38.852Z,63.37
2022-08-29T17:34:08.332Z,64.29
2022-08-29T17:36:37.500Z,65.05
2022-08-29T17:39:06.973Z,65.48
2022-08-29T17:41:37.149Z,67.13
2022-08-29T17:44:07.235Z,67.61
2022-08-29T17:46:35.247Z,68.34
2022-08-29T17:49:07.482Z,68.99
2022-08-29T17:51:35.814Z,69.78
2022-08-29T17:54:04.496Z,70.61
2022-08-29T17:56:44.860Z,71.05
2022-08-29T17:59:14.403Z,72.05
2022-08-29T18:01:42.187Z,72.28
2022-08-29T18:04:09.926Z,72.49
2022-08-29T18:06:38.304Z,72.94
2022-08-29T18:09:06.940Z,73.08
2022-08-29T18:11:39.875Z,73.58
2022-08-29T18:14:08.596Z,73.64
2022-08-29T18:16:36.776Z,73.73
2022-08-29T18:19:05.215Z,74.12
2022-08-29T18:21:33.064Z,74.50
2022-08-29T18:24:01.194Z,74.80
2022-08-29T18:26:29.538Z,74.74
2022-08-29T18:28:57.049Z,75.46
2022-08-29T18:31:24.686Z,76.01
2022-08-29T18:34:00.962Z,76.69
2022-08-29T18:36:33.367Z,78.56
2022-08-29T18:39:02.054Z,79.13
2022-08-29T18:41:29.827Z,80.13
2022-08-29T18:43:58.886Z,81.02
2022-08-29T18:46:28.149Z,81.79
2022-08-29T18:48:55.828Z,81.96
2022-08-29T18:51:23.395Z,83.60
2022-08-29T18:53:50.965Z,84.30
2022-08-29T18:56:18.682Z,84.93
2022-08-29T18:58:46.167Z,86.13
2022-08-29T19:01:27.149Z,86.93
2022-08-29T19:03:58.022Z,87.85
2022-08-29T19:06:27.278Z,88.40
2022-08-29T19:08:57.123Z,88.97
2022-08-29T19:11:26.125Z,89.64
2022-08-29T19:13:53.916Z,90.07
2022-08-29T19:16:23.852Z,90.33
2022-08-29T19:18:52.395Z,91.21
2022-08-29T19:21:19.434Z,91.75
2022-08-29T19:23:52.298Z,92.08
2022-08-29T19:26:28.469Z,92.57
2022-08-29T19:28:59.235Z,93.45
2022-08-29T19:31:28.923Z,93.40
2022-08-29T19:33:57.103Z,94.19
2022-08-29T19:36:24.865Z,94.27
2022-08-29T19:38:52.479Z,94.63
2022-08-29T19:41:20.291Z,94.94
2022-08-29T19:43:47.982Z,94.88
2022-08-29T19:46:21.304Z,95.26
2022-08-29T19:48:51.290Z,95.53
2022-08-29T19:51:21.424Z,95.59
2022-08-29T19:53:50.019Z,96.06
2022-08-29T19:56:17.895Z,96.54
2022-08-29T19:58:45.548Z,96.84
2022-08-29T20:01:13.246Z,96.85
2022-08-29T20:03:42.692Z,97.12
2022-08-29T20:06:10.741Z,97.43
2022-08-29T20:08:42.641Z,97.29
2022-08-29T20:11:21.020Z,97.63
2022-08-29T20:13:51.255Z,98.15
2022-08-29T20:16:22.221Z,97.65
2022-08-29T20:18:51.804Z,97.85
2022-08-29T20:21:20.207Z,98.01
2022-08-29T20:23:49.892Z,98.09
2022-08-29T20:26:20.319Z,98.21
2022-08-29T20:28:49.190Z,98.58
2022-08-29T20:31:16.827Z,98.16
2022-08-29T20:33:44.841Z,98.29
2022-08-29T20:36:30.209Z,97.97
2022-08-29T20:38:57.768Z,98.30
2022-08-29T20:41:25.657Z,98.73
2022-08-29T20:43:53.160Z,98.80
2022-08-29T20:46:21.101Z,98.84
2022-08-29T20:48:48.682Z,99.24
2022-08-29T20:51:16.213Z,98.99
2022-08-29T20:53:43.716Z,99.00
2022-08-29T20:56:11.329Z,99.26
2022-08-29T20:58:38.825Z,99.57
2022-08-29T21:01:06.727Z,99.89
2022-08-29T21:03:52.797Z,100.00
2022-08-29T21:06:21.770Z,100.00
2022-08-29T21:08:49.800Z,100.00
2022-08-29T21:11:17.320Z,100.00
2022-08-29T21:13:45.046Z,100.00
2022-08-29T21:16:13.023Z,100.00
2022-08-29T21:18:41.363Z,100.00
2022-08-29T21:21:13.322Z,100.00
2022-08-29T21:23:42.044Z,100.00
2022-08-29T21:26:09.660Z,100.00
2022-08-29T21:28:37.997Z,100.00
2022-08-29T21:31:09.419Z,100.00
2022-08-29T21:33:42.241Z,100.00
2022-08-29T21:36:14.726Z,100.00
2022-08-29T21:38:42.233Z,100.00
2022-08-29T21:41:11.614Z,100.00
2022-08-29T21:43:40.517Z,100.00
2022-08-29T21:46:15.968Z,100.00
2022-08-29T21:48:43.870Z,100.00
2022-08-29T21:51:12.915Z,100.00
2022-08-29T21:53:41.633Z,100.00
2022-08-29T21:56:09.447Z,100.00
2022-08-29T21:58:36.930Z,100.00
2022-08-29T22:01:04.979Z,100.00
2022-08-29T22:03:32.913Z,100.00
2022-08-29T22:06:00.385Z,100.00
2022-08-29T22:08:27.917Z,100.00
2022-08-29T22:10:55.432Z,100.00
2022-08-29T22:13:22.988Z,100.00
2022-08-29T22:16:07.798Z,100.00
2022-08-29T22:18:35.834Z,100.00
2022-08-29T22:21:04.977Z,100.00
2022-08-29T22:23:32.503Z,100.00
2022-08-29T22:26:00.010Z,100.00
2022-08-29T22:28:27.493Z,100.00
2022-08-29T22:30:55.064Z,100.00
2022-08-29T22:33:22.697Z,100.00
2022-08-29T22:35:50.221Z,100.00
2022-08-29T22:38:17.755Z,100.00
2022-08-29T22:40:48.023Z,100.00
2022-08-29T22:43:15.971Z,100.00
2022-08-29T22:45:44.426Z,100.00
2022-08-29T22:48:13.238Z,100.00
2022-08-29T22:50:45.894Z,100.00
2022-08-29T22:53:25.470Z,100.00
2022-08-29T22:55:52.957Z,100.00
2022-08-29T22:58:20.429Z,100.00
2022-08-29T23:00:47.899Z,100.00
2022-08-29T23:03:15.839Z,100.00
2022-08-29T23:05:43.676Z,100.00
2022-08-29T23:08:11.218Z,100.00
2022-08-29T23:10:38.772Z,100.00
2022-08-29T23:13:06.256Z,100.00
2022-08-29T23:15:33.941Z,100.00
2022-08-29T23:18:03.268Z,100.00
2022-08-29T23:20:30.719Z,100.00
2022-08-29T23:22:58.351Z,100.00
2022-08-29T23:25:25.818Z,100.00
2022-08-29T23:27:53.306Z,100.00
2022-08-29T23:30:20.832Z,100.00
2022-08-29T23:32:48.339Z,100.00
2022-08-29T23:35:15.854Z,100.00
2022-08-29T23:37:43.348Z,100.00
2022-08-29T23:40:11.318Z,100.00
2022-08-29T23:42:38.861Z,100.00
2022-08-29T23:45:06.911Z,100.00
2022-08-29T23:47:36.098Z,100.00
2022-08-29T23:50:05.918Z,100.00
2022-08-29T23:52:33.468Z,100.00
2022-08-29T23:55:01.987Z,100.00
2022-08-29T23:57:29.435Z,100.00
